CheckWX is a tool to help pilots better visualize weather data.  It is not intended as a substitute for an official pre-flight weather briefing.

08:13:11 UTC

KEIR METAR
Eugene Island
Eugene Island, Louisiana, USA
Current

23 mins ago

KEIR 220750Z AUTO 16004KT 4SM BR BKN008 OVC012 22/22 A2999 RMK A01
Observed
Feb-22 @ 07:50 UTC
Wind
  • 160° at 4 KTS
Visibility
4 SM
Flight Rules
IFR
Conditions
Mist
Cloud Levels
  • Broken at 800' AGL
  • Overcast at 1,200' AGL
Temperature
22°C / 72°F
Dewpoint
22°C / 72°F
Humidity
100%
Altimeter
29.99" Hg
Pressure
1015.62 hPa
Previous

38 mins ago

KEIR 220735Z AUTO 16005KT 4SM BR OVC009 22/22 A2999 RMK A01
Observed
Feb-22 @ 07:35 UTC
Wind
  • 160° at 5 KTS
Visibility
4 SM
Flight Rules
IFR
Conditions
Mist
Cloud Levels
  • Overcast at 900' AGL
Temperature
22°C / 72°F
Dewpoint
22°C / 72°F
Humidity
100%
Altimeter
29.99" Hg
Pressure
1015.62 hPa
Previous

58 mins ago

KEIR 220715Z AUTO 14005KT 3SM BR BKN010 OVC014 22/22 A2999 RMK A01
Observed
Feb-22 @ 07:15 UTC
Wind
  • 140° at 5 KTS
Visibility
3 SM
Flight Rules
MVFR
Conditions
Mist
Cloud Levels
  • Broken at 1,000' AGL
  • Overcast at 1,400' AGL
Temperature
22°C / 72°F
Dewpoint
22°C / 72°F
Humidity
100%
Altimeter
29.99" Hg
Pressure
1015.62 hPa